Time;durP1;ratioP1;P1;durP2;ratioP2;P2;SDS_P1;SDS_P2;PMS_P1;PMS_P2;Temp;Humidity;BMP_temperature;BMP_pressure;BME280_temperature;BME280_humidity;BME280_pressure;Samples;Min_cycle;Max_cycle;Signal;HPM_P1;HPM_P2
2023/11/10 00:01:16;;;;;;;13.75;10.15;;;;;;;7.97;100.00;102956.84;5034624;28;20039;-78
2023/11/10 00:03:42;;;;;;;16.92;10.98;;;;;;;8.01;100.00;102956.13;5051882;28;20036;-78
2023/11/10 00:06:07;;;;;;;12.32;10.48;;;;;;;7.56;100.00;102872.03;5051360;28;20048;-78
2023/11/10 00:08:33;;;;;;;13.55;10.77;;;;;;;7.86;100.00;102941.34;5051454;28;20017;-78
2023/11/10 00:10:59;;;;;;;12.75;10.48;;;;;;;7.46;100.00;102862.41;5051024;28;20037;-76
2023/11/10 00:13:24;;;;;;;12.13;9.93;;;;;;;7.99;100.00;102957.75;5033136;28;20037;-77
2023/11/10 00:15:50;;;;;;;12.95;9.90;;;;;;;7.83;100.00;102876.25;5050960;28;20484;-77
2023/11/10 00:18:16;;;;;;;12.00;9.73;;;;;;;7.71;100.00;102910.47;5050746;28;20033;-78
2023/11/10 00:20:42;;;;;;;12.85;10.45;;;;;;;7.56;100.00;102902.41;5051200;28;20091;-77
2023/11/10 00:23:11;;;;;;;11.98;10.65;;;;;;;7.63;100.00;102904.28;5050566;28;20024;-78
2023/11/10 00:25:36;;;;;;;12.90;9.85;;;;;;;7.47;100.00;102816.03;5048997;28;20033;-77
2023/11/10 00:28:03;;;;;;;14.60;10.40;;;;;;;7.79;100.00;102894.69;5049816;28;20032;-77
2023/11/10 00:30:29;;;;;;;15.27;10.77;;;;;;;7.66;100.00;102894.28;5032584;28;20040;-80
2023/11/10 00:32:55;;;;;;;12.98;11.20;;;;;;;7.72;100.00;102913.06;5050595;28;20021;-78
2023/11/10 00:35:20;;;;;;;12.32;10.57;;;;;;;7.92;100.00;102912.81;5050549;28;20037;-74
2023/11/10 00:37:46;;;;;;;13.75;11.68;;;;;;;7.54;100.00;102888.81;5050186;28;20041;-76
2023/11/10 00:40:11;;;;;;;13.18;11.30;;;;;;;7.80;100.00;102886.28;5049116;28;20029;-76
2023/11/10 00:42:39;;;;;;;15.00;11.85;;;;;;;7.61;100.00;102873.88;5032003;28;20325;-76
2023/11/10 00:45:04;;;;;;;14.38;11.23;;;;;;;7.92;100.00;102936.47;5048817;28;20029;-75
2023/11/10 00:47:30;;;;;;;14.82;11.65;;;;;;;7.79;100.00;102955.47;5049575;28;20090;-74
2023/11/10 00:49:55;;;;;;;17.63;11.18;;;;;;;7.93;100.00;102966.03;5030977;28;20401;-76
2023/11/10 00:52:21;;;;;;;15.25;11.23;;;;;;;7.55;100.00;102911.66;5049618;28;20033;-72
2023/11/10 00:54:47;;;;;;;14.27;11.20;;;;;;;7.14;100.00;102921.25;5048050;28;20039;-76
2023/11/10 00:57:14;;;;;;;13.52;9.95;;;;;;;7.34;100.00;102917.69;5049419;28;20158;-75
2023/11/10 00:59:39;;;;;;;13.65;9.70;;;;;;;7.76;100.00;102980.69;5049099;28;20028;-75
2023/11/10 01:02:05;;;;;;;13.05;9.85;;;;;;;7.92;100.00;102992.19;5047813;28;20037;-75
2023/11/10 01:04:30;;;;;;;11.07;9.27;;;;;;;7.96;100.00;103003.28;5048128;28;20411;-75
2023/11/10 01:06:56;;;;;;;12.73;9.85;;;;;;;7.62;100.00;102983.59;5049053;28;20040;-76
2023/11/10 01:09:21;;;;;;;11.07;9.02;;;;;;;7.28;100.00;102907.38;5032252;28;20029;-74
2023/11/10 01:11:48;;;;;;;10.43;9.02;;;;;;;7.83;100.00;102976.69;5047876;28;20041;-75
2023/11/10 01:14:13;;;;;;;10.90;9.02;;;;;;;7.40;100.00;102968.50;5049459;28;20091;-75
2023/11/10 01:16:39;;;;;;;11.70;9.55;;;;;;;7.21;100.00;102951.00;5048644;28;20028;-74
2023/11/10 01:19:05;;;;;;;11.65;9.02;;;;;;;7.65;100.00;102973.56;5049254;28;20173;-76
2023/11/10 01:21:31;;;;;;;10.55;8.80;;;;;;;7.15;100.00;102888.41;5048374;28;20044;-76
2023/11/10 01:23:58;;;;;;;10.35;8.80;;;;;;;7.38;100.00;102937.25;5048132;28;20028;-77
2023/11/10 01:26:24;;;;;;;11.80;10.07;;;;;;;7.17;100.00;102896.06;5048952;28;20044;-74
2023/11/10 01:28:50;;;;;;;13.50;10.63;;;;;;;7.61;100.00;102928.69;5049530;28;20480;-78
2023/11/10 01:31:16;;;;;;;12.45;9.85;;;;;;;7.81;100.00;102951.31;5031059;28;20044;-75
2023/11/10 01:33:42;;;;;;;14.20;11.02;;;;;;;6.88;100.00;102847.03;5048848;28;20495;-72
2023/11/10 01:36:08;;;;;;;13.00;10.57;;;;;;;6.89;100.00;102849.59;5048847;28;20021;-75
2023/11/10 01:38:35;;;;;;;14.45;10.07;;;;;;;7.56;100.00;102920.97;5048963;28;20483;-76
2023/11/10 01:41:01;;;;;;;13.55;10.57;;;;;;;7.48;100.00;102889.50;5048987;28;20029;-75
2023/11/10 01:43:26;;;;;;;12.18;10.18;;;;;;;7.13;100.00;102843.63;5048938;28;20037;-75
2023/11/10 01:45:53;;;;;;;12.50;11.00;;;;;;;7.39;100.00;102914.50;5049330;28;20090;-76
2023/11/10 01:48:19;;;;;;;16.10;11.50;;;;;;;7.39;100.00;102906.06;5029954;28;20025;-75
2023/11/10 01:50:45;;;;;;;13.65;10.68;;;;;;;7.62;100.00;102915.25;5031554;28;20146;-76
2023/11/10 01:53:11;;;;;;;14.00;10.85;;;;;;;7.19;100.00;102857.31;5031476;28;20077;-75
2023/11/10 01:55:38;;;;;;;15.18;11.32;;;;;;;6.98;100.00;102834.75;5048691;28;20041;-76
2023/11/10 01:58:07;;;;;;;14.85;10.77;;;;;;;7.32;100.00;102851.88;5049441;28;20048;-76
2023/11/10 02:00:33;;;;;;;15.20;10.48;;;;;;;7.46;100.00;102918.09;5031568;28;20024;-77
2023/11/10 02:03:03;;;;;;;18.15;11.38;;;;;;;7.03;100.00;102844.16;5048524;28;20484;-76
2023/11/10 02:05:29;;;;;;;13.63;10.98;;;;;;;7.28;100.00;102912.44;5048585;28;20041;-71
2023/11/10 02:07:55;;;;;;;11.55;10.32;;;;;;;7.69;100.00;102912.06;5046877;28;20040;-77
2023/11/10 02:10:20;;;;;;;13.45;11.20;;;;;;;7.57;100.00;102877.13;5048421;28;20029;-77
2023/11/10 02:12:51;;;;;;;13.07;10.57;;;;;;;7.48;100.00;102886.09;5030480;28;20108;-75
2023/11/10 02:15:16;;;;;;;13.70;10.93;;;;;;;6.88;100.00;102842.84;5047365;28;20032;-74
2023/11/10 02:17:42;;;;;;;14.50;11.10;;;;;;;6.92;100.00;102871.59;5048548;28;20083;-79
2023/11/10 02:20:08;;;;;;;12.15;10.32;;;;;;;7.27;100.00;102880.38;5030082;28;20033;-74
2023/11/10 02:22:34;;;;;;;13.27;11.10;;;;;;;7.09;100.00;102836.75;5047729;28;20055;-75
2023/11/10 02:25:02;;;;;;;12.43;10.70;;;;;;;7.54;100.00;102931.88;5048058;28;20037;-75
2023/11/10 02:27:28;;;;;;;13.20;10.68;;;;;;;7.39;100.00;102927.16;5029486;28;20055;-77
2023/11/10 02:29:53;;;;;;;13.07;10.20;;;;;;;7.60;100.00;102944.72;5048448;28;20487;-77
2023/11/10 02:32:19;;;;;;;13.65;10.80;;;;;;;7.33;100.00;102941.31;5048350;28;20079;-78
2023/11/10 02:34:45;;;;;;;15.15;11.27;;;;;;;7.26;100.00;102930.09;5030580;28;20031;-76
2023/11/10 02:37:13;;;;;;;12.20;9.88;;;;;;;7.11;100.00;102899.22;5048402;28;20104;-77
2023/11/10 02:39:39;;;;;;;13.68;10.32;;;;;;;7.53;100.00;102948.72;5030476;28;20403;-76
2023/11/10 02:42:05;;;;;;;13.23;9.93;;;;;;;7.54;100.00;102937.78;5048255;28;20136;-78
2023/11/10 02:44:30;;;;;;;12.95;9.80;;;;;;;7.31;100.00;102940.38;5048513;28;20064;-76
2023/11/10 02:46:56;;;;;;;11.13;9.23;;;;;;;7.01;100.00;102864.34;5048188;28;20040;-77
2023/11/10 02:49:21;;;;;;;11.45;9.10;;;;;;;7.31;100.00;102887.25;5047472;28;20036;-75
2023/11/10 02:51:47;;;;;;;10.45;9.07;;;;;;;7.11;100.00;102914.41;5047817;28;20063;-76
2023/11/10 02:54:13;;;;;;;11.10;8.65;;;;;;;6.90;100.00;102880.81;5046753;28;20044;-70
2023/11/10 02:56:39;;;;;;;11.05;8.52;;;;;;;7.14;100.00;102904.41;5047899;28;20083;-75
2023/11/10 02:59:04;;;;;;;10.05;8.25;;;;;;;7.08;100.00;102933.69;5047834;28;20029;-75
2023/11/10 03:01:30;;;;;;;9.65;8.38;;;;;;;7.31;100.00;102945.44;5029787;28;20121;-75
2023/11/10 03:03:55;;;;;;;11.23;8.48;;;;;;;7.15;100.00;102945.75;5047802;28;20029;-75
2023/11/10 03:06:21;;;;;;;10.25;8.38;;;;;;;7.32;100.00;102945.50;5047661;28;20045;-75
2023/11/10 03:08:47;;;;;;;11.73;8.85;;;;;;;6.58;100.00;102851.91;5049195;28;20086;-77
2023/11/10 03:11:13;;;;;;;11.00;8.25;;;;;;;7.00;100.00;102946.06;5050733;28;20036;-75
2023/11/10 03:13:41;;;;;;;11.82;7.97;;;;;;;7.00;100.00;102929.22;5051994;28;20411;-74
2023/11/10 03:16:08;;;;;;;11.75;8.70;;;;;;;7.16;100.00;102947.44;5033463;28;20051;-75
2023/11/10 03:18:34;;;;;;;10.68;8.85;;;;;;;6.85;100.00;102928.69;5051862;28;20150;-77
2023/11/10 03:21:00;;;;;;;11.85;8.63;;;;;;;6.75;100.00;102867.66;5051421;28;20029;-74
2023/11/10 03:23:26;;;;;;;14.13;9.45;;;;;;;7.24;100.00;102966.28;5033890;28;20044;-76
2023/11/10 03:25:52;;;;;;;13.88;9.50;;;;;;;6.85;100.00;102938.78;5051710;28;20044;-75
2023/11/10 03:28:18;;;;;;;15.77;10.40;;;;;;;6.62;100.00;102926.16;5050073;28;20115;-75
2023/11/10 03:30:44;;;;;;;14.07;10.20;;;;;;;6.26;100.00;102897.06;5050216;28;20111;-76
2023/11/10 03:33:09;;;;;;;16.38;13.40;;;;;;;6.13;100.00;102914.28;5051184;28;20104;-77
2023/11/10 03:35:35;;;;;;;16.70;13.23;;;;;;;6.06;100.00;102866.84;5033833;28;20028;-77
2023/11/10 03:38:00;;;;;;;12.88;9.88;;;;;;;6.27;100.00;102932.47;5051923;28;20029;-77
2023/11/10 03:40:26;;;;;;;12.57;9.93;;;;;;;6.21;100.00;102924.66;5050468;28;20086;-77
2023/11/10 03:42:51;;;;;;;13.57;10.55;;;;;;;5.61;100.00;102847.44;5051125;28;20033;-79
2023/11/10 03:45:17;;;;;;;17.00;10.43;;;;;;;5.23;100.00;102805.56;5032863;28;20411;-80
2023/11/10 03:47:42;;;;;;;13.82;10.40;;;;;;;5.79;100.00;102917.94;5033476;28;20037;-78
2023/11/10 03:50:08;;;;;;;12.52;10.27;;;;;;;5.72;100.00;102911.81;5050223;28;20029;-78
2023/11/10 03:52:35;;;;;;;12.98;10.43;;;;;;;5.31;100.00;102847.91;5051367;28;20041;-80
2023/11/10 03:55:00;;;;;;;12.80;10.60;;;;;;;5.41;100.00;102891.19;5050241;28;20029;-77
2023/11/10 03:57:26;;;;;;;14.13;10.90;;;;;;;5.47;100.00;102910.78;5031522;28;20411;-74
2023/11/10 03:59:51;;;;;;;14.35;11.18;;;;;;;5.17;100.00;102896.09;5050042;28;20404;-77
2023/11/10 04:02:16;;;;;;;16.08;13.05;;;;;;;5.28;100.00;102906.66;5050374;28;20033;-77
2023/11/10 04:04:42;;;;;;;14.48;12.30;;;;;;;5.41;100.00;102924.00;5050241;28;20086;-77
2023/11/10 04:07:08;;;;;;;14.07;11.05;;;;;;;5.14;100.00;102878.34;5032982;28;20104;-76
2023/11/10 04:09:34;;;;;;;13.50;11.25;;;;;;;4.97;100.00;102888.53;5032122;28;20029;-76
2023/11/10 04:12:01;;;;;;;14.45;10.85;;;;;;;5.31;100.00;102875.66;5032102;28;20053;-76
2023/11/10 04:14:27;;;;;;;11.35;10.15;;;;;;;5.95;100.00;102948.06;5048726;28;20037;-77
2023/11/10 04:16:52;;;;;;;12.43;9.52;;;;;;;5.59;100.00;102924.72;5049846;28;20052;-77
2023/11/10 04:19:18;;;;;;;13.00;9.60;;;;;;;5.17;100.00;102868.38;5050283;28;20029;-72
2023/11/10 04:21:44;;;;;;;10.98;8.88;;;;;;;6.05;100.00;102935.00;5049475;28;20029;-77
2023/11/10 04:24:11;;;;;;;14.15;9.20;;;;;;;5.60;100.00;102896.19;5049451;28;20116;-75
2023/11/10 04:26:37;;;;;;;11.57;9.30;;;;;;;6.13;100.00;102963.94;5049442;28;20033;-77
2023/11/10 04:29:05;;;;;;;18.30;11.27;;;;;;;5.70;100.00;102960.50;5050334;28;20124;-76
2023/11/10 04:31:31;;;;;;;351.65;157.48;;;;;;;5.92;100.00;102928.59;5046914;28;20056;-73
2023/11/10 04:33:57;;;;;;;339.17;160.30;;;;;;;5.41;100.00;102891.19;5048081;28;20515;-76
2023/11/10 04:36:22;;;;;;;306.70;142.73;;;;;;;6.23;100.00;102971.06;5048551;28;20029;-74
2023/11/10 04:38:48;;;;;;;89.43;52.10;;;;;;;5.77;100.00;102927.13;5048356;28;20051;-73
2023/11/10 04:41:15;;;;;;;57.28;37.05;;;;;;;6.04;100.00;102979.56;5048374;28;20025;-72
2023/11/10 04:43:40;;;;;;;20.10;13.70;;;;;;;5.84;100.00;102924.06;5046963;28;20493;-74
2023/11/10 04:46:06;;;;;;;18.67;12.57;;;;;;;5.43;100.00;102874.47;5047794;28;20035;-72
2023/11/10 04:48:31;;;;;;;16.55;12.35;;;;;;;5.83;100.00;102924.81;5047945;28;20411;-73
2023/11/10 04:50:57;;;;;;;20.75;13.07;;;;;;;5.54;100.00;102873.25;5049742;28;20480;-77
2023/11/10 04:53:23;;;;;;;17.05;12.63;;;;;;;6.25;100.00;102999.75;5049232;28;20179;-76
2023/11/10 04:55:48;;;;;;;21.40;13.07;;;;;;;6.09;100.00;103002.50;5032035;28;20068;-76
2023/11/10 04:58:14;;;;;;;41.63;33.13;;;;;;;5.43;100.00;102922.38;5031217;28;20033;-75
2023/11/10 05:00:40;;;;;;;22.75;19.25;;;;;;;5.97;100.00;103014.63;5048771;28;20047;-75
2023/11/10 05:03:06;;;;;;;23.02;17.50;;;;;;;5.89;100.00;103005.88;5049150;28;20082;-75
2023/11/10 05:05:32;;;;;;;19.77;15.35;;;;;;;5.80;100.00;102981.09;5025125;28;20041;-75
2023/11/10 05:07:59;;;;;;;22.10;16.83;;;;;;;6.04;100.00;103034.28;5027006;28;20036;-74
2023/11/10 05:10:25;;;;;;;25.70;20.20;;;;;;;6.16;100.00;103044.00;5027734;28;20131;-75
2023/11/10 05:12:51;;;;;;;21.83;17.40;;;;;;;5.70;100.00;102968.94;5028605;28;20032;-75
2023/11/10 05:15:17;;;;;;;26.58;19.13;;;;;;;5.75;100.00;103019.59;5028586;28;20029;-74
2023/11/10 05:17:43;;;;;;;18.75;14.45;;;;;;;6.10;100.00;103042.94;5029026;28;20032;-75
2023/11/10 05:20:13;;;;;;;17.35;12.70;;;;;;;5.75;100.00;102989.28;5027398;28;20995;-74
2023/11/10 05:22:40;;;;;;;15.65;12.90;;;;;;;6.00;100.00;103060.22;5027248;28;20502;-76
2023/11/10 05:25:06;;;;;;;16.23;12.63;;;;;;;5.65;100.00;103004.84;5027091;28;23679;-75
2023/11/10 05:27:32;;;;;;;20.35;14.40;;;;;;;6.18;100.00;103070.19;5027891;28;20116;-74
2023/11/10 05:29:58;;;;;;;17.65;12.50;;;;;;;5.78;100.00;102997.88;5027521;28;20136;-76
2023/11/10 05:32:24;;;;;;;15.27;12.10;;;;;;;6.13;100.00;103077.56;5026080;28;20107;-76
2023/11/10 05:34:50;;;;;;;15.85;12.68;;;;;;;5.65;100.00;102967.00;5027839;28;20037;-77
2023/11/10 05:37:18;;;;;;;18.20;11.55;;;;;;;6.47;100.00;103052.84;5026615;28;20033;-75
2023/11/10 05:39:45;;;;;;;16.33;11.73;;;;;;;6.77;100.00;103053.97;5028329;28;20037;-74
2023/11/10 05:42:13;;;;;;;18.00;11.40;;;;;;;6.95;100.00;103125.47;5025241;28;20144;-73
2023/11/10 05:44:38;;;;;;;21.67;11.85;;;;;;;7.00;100.00;103134.09;5027585;28;20117;-75
2023/11/10 05:47:04;;;;;;;20.48;11.75;;;;;;;7.02;100.00;103134.16;5027439;28;20087;-76
2023/11/10 05:49:29;;;;;;;54.33;44.95;;;;;;;7.55;100.00;103138.63;5028414;28;20048;-78
2023/11/10 05:51:55;;;;;;;58.42;22.95;;;;;;;9.99;100.00;103321.59;5044510;28;20029;-78
2023/11/10 05:54:20;;;;;;;22.75;15.50;;;;;;;9.79;100.00;103298.97;5028108;28;20043;-80
2023/11/10 05:56:46;;;;;;;17.75;14.75;;;;;;;7.14;100.00;103136.28;5027486;28;20021;-80
2023/11/10 05:59:11;;;;;;;17.77;12.95;;;;;;;7.17;100.00;103133.88;5026231;28;20037;-79
2023/11/10 06:01:37;;;;;;;15.88;11.23;;;;;;;6.48;100.00;103115.19;5042831;28;20565;-81
2023/11/10 06:04:02;;;;;;;17.55;12.30;;;;;;;6.98;100.00;103187.97;5026593;28;20132;-79
2023/11/10 06:06:28;;;;;;;21.48;13.65;;;;;;;6.84;100.00;103171.38;5026397;28;20515;-81
2023/11/10 06:08:55;;;;;;;34.25;19.75;;;;;;;7.44;100.00;103231.06;5027671;28;20037;-80
2023/11/10 06:11:23;;;;;;;26.02;16.95;;;;;;;8.79;100.00;103308.56;5026762;28;20041;-84
2023/11/10 06:13:49;;;;;;;25.33;16.10;;;;;;;9.39;100.00;103357.88;5027892;28;20037;-80
2023/11/10 06:16:18;;;;;;;24.90;16.52;;;;;;;9.84;100.00;103382.16;5028324;28;20471;-78
2023/11/10 06:18:44;;;;;;;27.13;16.05;;;;;;;10.40;100.00;103447.41;5028377;28;20053;-74
2023/11/10 06:21:11;;;;;;;24.08;13.23;;;;;;;10.06;100.00;103430.25;5028614;28;20104;-77
2023/11/10 06:23:37;;;;;;;19.83;11.88;;;;;;;12.61;100.00;103606.91;5028678;28;20029;-79
2023/11/10 06:26:03;;;;;;;18.02;10.63;;;;;;;14.59;100.00;103788.19;5028617;28;20036;-80
2023/11/10 06:28:28;;;;;;;15.45;11.05;;;;;;;14.73;100.00;103668.88;5028750;28;20409;-76
2023/11/10 06:30:55;;;;;;;18.52;11.55;;;;;;;14.48;100.00;103702.66;5027424;28;20705;-79
2023/11/10 06:33:21;;;;;;;22.33;14.45;;;;;;;15.09;100.00;103737.75;5028620;28;20029;-81
2023/11/10 06:35:47;;;;;;;19.58;13.70;;;;;;;13.58;100.00;103582.53;5028457;28;20083;-76
2023/11/10 06:38:13;;;;;;;27.67;17.80;;;;;;;13.25;100.00;103540.16;5028092;28;20033;-78
2023/11/10 06:40:39;;;;;;;24.88;16.83;;;;;;;12.91;100.00;103467.09;5027506;28;20095;-80
2023/11/10 06:43:04;;;;;;;13.82;11.38;;;;;;;13.90;100.00;103545.53;5027306;28;20057;-80
2023/11/10 06:45:30;;;;;;;14.82;10.50;;;;;;;14.12;100.00;103451.19;5027114;28;20109;-78
2023/11/10 06:47:59;;;;;;;16.67;11.93;;;;;;;13.79;100.00;103383.38;5028907;28;20515;-73
2023/11/10 06:50:24;;;;;;;14.50;11.88;;;;;;;12.01;100.00;103277.31;5026943;28;20044;-76
2023/11/10 06:52:51;;;;;;;12.68;10.02;;;;;;;9.83;100.00;103089.88;5027405;28;20037;-79
2023/11/10 06:55:17;;;;;;;11.43;9.25;;;;;;;9.78;100.00;103147.34;5027238;28;20036;-79
2023/11/10 06:57:44;;;;;;;11.82;9.60;;;;;;;8.80;100.00;103119.13;5027607;28;20034;-78
2023/11/10 07:00:10;;;;;;;11.52;9.82;;;;;;;8.70;100.00;103090.97;5028398;28;20083;-79
2023/11/10 07:02:36;;;;;;;11.98;9.88;;;;;;;8.37;100.00;103096.69;5027728;28;20053;-77
2023/11/10 07:05:02;;;;;;;11.07;9.88;;;;;;;9.35;100.00;103206.22;5043666;28;20195;-79
2023/11/10 07:07:28;;;;;;;12.88;10.75;;;;;;;8.77;100.00;103144.44;5028760;28;20104;-79
2023/11/10 07:09:54;;;;;;;12.73;10.50;;;;;;;8.93;100.00;103177.94;5027436;28;20103;-76
2023/11/10 07:12:19;;;;;;;14.40;10.65;;;;;;;9.46;100.00;103236.22;5027802;28;20500;-79
2023/11/10 07:14:45;;;;;;;13.68;10.93;;;;;;;9.20;100.00;103221.03;5027454;28;20116;-79
2023/11/10 07:17:14;;;;;;;16.48;12.02;;;;;;;9.89;100.00;103258.63;5028065;28;20091;-78
2023/11/10 07:19:40;;;;;;;16.05;11.70;;;;;;;9.86;100.00;103301.75;5028344;28;20110;-79
2023/11/10 07:22:05;;;;;;;16.90;11.75;;;;;;;9.89;100.00;103312.00;5027066;28;20199;-77
2023/11/10 07:24:31;;;;;;;18.08;11.88;;;;;;;10.20;100.00;103311.22;5026035;28;20091;-77
2023/11/10 07:26:56;;;;;;;17.63;12.00;;;;;;;9.93;100.00;103246.84;5027777;28;20028;-80
2023/11/10 07:29:22;;;;;;;14.25;11.73;;;;;;;10.58;100.00;103342.78;5027662;28;20033;-79
2023/11/10 07:31:48;;;;;;;15.23;11.85;;;;;;;10.10;100.00;103274.47;5027132;28;20069;-78
2023/11/10 07:34:14;;;;;;;16.85;11.63;;;;;;;10.44;100.00;103334.75;5027597;28;20067;-78
2023/11/10 07:36:40;;;;;;;15.60;10.57;;;;;;;10.68;100.00;103359.97;5027265;28;20033;-76
2023/11/10 07:39:06;;;;;;;13.35;10.73;;;;;;;10.85;100.00;103376.56;5027428;28;20041;-77
2023/11/10 07:41:34;;;;;;;11.13;9.93;;;;;;;10.48;100.00;103316.19;5026308;28;20483;-76
2023/11/10 07:44:00;;;;;;;12.52;10.57;;;;;;;10.32;100.00;103303.88;5027938;28;20033;-77
2023/11/10 07:46:27;;;;;;;14.43;10.43;;;;;;;10.49;100.00;103330.66;5027009;28;20412;-77
2023/11/10 07:48:52;;;;;;;14.88;11.00;;;;;;;10.75;100.00;103341.50;5027335;28;20124;-78
2023/11/10 07:51:18;;;;;;;12.25;10.35;;;;;;;11.19;100.00;103392.72;5028089;28;20513;-78
2023/11/10 07:53:43;;;;;;;12.27;10.75;;;;;;;11.53;100.00;103422.41;5026820;28;20043;-77
2023/11/10 07:56:09;;;;;;;12.00;9.10;;;;;;;10.98;100.00;103341.25;5030389;28;20060;-75
2023/11/10 07:58:36;;;;;;;11.65;9.55;;;;;;;11.06;100.00;103337.22;5030497;28;20041;-77
2023/11/10 08:01:01;;;;;;;13.10;9.23;;;;;;;11.56;100.00;103413.97;5031094;28;20036;-78
2023/11/10 08:03:27;;;;;;;11.60;9.18;;;;;;;11.34;100.00;103342.16;5030491;28;20511;-74
2023/11/10 08:05:53;;;;;;;9.23;7.93;;;;;;;11.62;100.00;103392.06;5043349;28;20063;-78
2023/11/10 08:08:19;;;;;;;8.90;7.82;;;;;;;11.99;100.00;103427.75;5050048;28;20052;-80
2023/11/10 08:10:44;;;;;;;8.30;7.15;;;;;;;12.11;100.00;103432.25;5050871;28;20033;-82
2023/11/10 08:13:10;;;;;;;11.20;7.72;;;;;;;11.83;100.00;103366.19;5050724;28;20107;-78
2023/11/10 08:15:35;;;;;;;9.15;7.07;;;;;;;12.18;100.00;103414.56;5051282;28;20446;-78
2023/11/10 08:18:01;;;;;;;8.32;6.90;;;;;;;12.08;100.00;103381.19;5051147;28;20028;-78
2023/11/10 08:20:26;;;;;;;11.32;7.97;;;;;;;11.91;100.00;103349.38;5050590;28;20029;-77
2023/11/10 08:22:52;;;;;;;9.98;6.15;;;;;;;12.23;100.00;103395.94;5050523;28;20032;-78
2023/11/10 08:25:17;;;;;;;8.32;6.57;;;;;;;11.99;100.00;103340.19;5050707;28;20025;-78
2023/11/10 08:27:43;;;;;;;9.82;5.55;;;;;;;12.34;100.00;103380.00;5051320;28;20048;-78
2023/11/10 08:30:09;;;;;;;9.57;4.95;;;;;;;11.83;100.00;103280.38;5049841;28;20044;-77
2023/11/10 08:32:39;;;;;;;6.47;4.75;;;;;;;11.96;100.00;103284.88;5051036;28;20040;-77
2023/11/10 08:35:06;;;;;;;9.45;4.95;;;;;;;12.55;100.00;103331.06;5050868;28;20044;-77
2023/11/10 08:37:31;;;;;;;10.38;4.45;;;;;;;12.77;100.00;103354.47;5049662;28;20036;-76
2023/11/10 08:39:57;;;;;;;7.00;4.40;;;;;;;12.68;100.00;103343.22;5048567;28;20407;-78
2023/11/10 08:42:22;;;;;;;8.20;5.18;;;;;;;12.33;100.00;103272.81;5050636;28;20130;-77
2023/11/10 08:44:48;;;;;;;5.30;4.00;;;;;;;12.99;100.00;103353.97;5048901;28;20037;-76
2023/11/10 08:47:14;;;;;;;9.50;4.15;;;;;;;13.15;100.00;103350.03;5050379;28;20025;-78
2023/11/10 08:49:43;;;;;;;9.10;4.95;;;;;;;13.06;100.00;103332.00;5048992;28;20458;-78
2023/11/10 08:52:08;;;;;;;9.50;5.88;;;;;;;13.55;100.00;103354.88;5048106;28;20025;-80
2023/11/10 08:54:34;;;;;;;8.27;4.97;;;;;;;13.63;100.00;103358.41;5049680;28;20033;-79
2023/11/10 08:57:00;;;;;;;5.18;4.20;;;;;;;13.51;100.00;103342.91;5032472;28;20111;-79
2023/11/10 08:59:25;;;;;;;7.68;5.13;;;;;;;13.81;100.00;103356.09;5050062;28;20032;-75
2023/11/10 09:01:52;;;;;;;6.72;4.78;;;;;;;13.65;100.00;103328.59;5050092;28;20051;-78
2023/11/10 09:04:18;;;;;;;6.47;4.30;;;;;;;13.45;100.00;103280.63;5050082;28;20115;-79
2023/11/10 09:06:43;;;;;;;5.25;3.90;;;;;;;13.36;100.00;103243.00;5048628;28;20128;-75
2023/11/10 09:09:09;;;;;;;5.90;4.00;;;;;;;13.71;100.00;103287.78;5050122;28;20056;-76
2023/11/10 09:11:34;;;;;;;6.07;4.40;;;;;;;13.61;100.00;103264.59;5050631;28;20029;-78
2023/11/10 09:14:00;;;;;;;5.32;4.03;;;;;;;13.32;100.00;103202.03;5049969;28;20499;-79
2023/11/10 09:16:25;;;;;;;6.05;4.05;;;;;;;13.88;100.00;103218.91;5049402;28;20418;-75
2023/11/10 09:18:53;;;;;;;7.10;4.97;;;;;;;13.86;100.00;103224.00;5048617;28;20505;-78
2023/11/10 09:21:18;;;;;;;4.30;3.65;;;;;;;14.15;100.00;103220.88;5049378;28;20025;-79
2023/11/10 09:23:44;;;;;;;5.93;4.20;;;;;;;14.36;100.00;103219.41;5031624;28;20128;-80
2023/11/10 09:26:09;;;;;;;6.00;4.10;;;;;;;14.50;100.00;103216.97;5050155;28;20040;-80
2023/11/10 09:28:37;;;;;;;6.18;4.07;;;;;;;14.45;100.00;103172.56;5049048;28;20418;-80
2023/11/10 09:31:03;;;;;;;5.93;4.20;;;;;;;14.82;100.00;103205.25;5048301;28;20060;-77
2023/11/10 09:33:29;;;;;;;6.18;4.00;;;;;;;14.36;100.00;103118.72;5049922;28;20068;-79
2023/11/10 09:35:54;;;;;;;7.93;4.10;;;;;;;14.87;100.00;103180.53;5049838;28;20025;-80
2023/11/10 09:38:20;;;;;;;4.00;3.30;;;;;;;15.02;100.00;103180.59;5049044;28;20033;-78
2023/11/10 09:40:48;;;;;;;5.57;3.80;;;;;;;14.65;100.00;103117.22;5048398;28;20082;-86
2023/11/10 09:43:14;;;;;;;4.25;3.60;;;;;;;14.85;100.00;103125.00;5048345;28;20415;-77
2023/11/10 09:45:54;;;;;;;7.28;3.70;;;;;;;14.93;100.00;103110.53;5049015;28;20025;-77
2023/11/10 09:48:20;;;;;;;4.60;3.60;;;;;;;14.34;100.00;103000.94;5046491;28;20033;-79
2023/11/10 09:50:48;;;;;;;5.93;3.92;;;;;;;15.07;100.00;103109.75;5048524;28;20043;-78
2023/11/10 09:53:15;;;;;;;5.78;3.70;;;;;;;15.27;100.00;103107.25;5049351;28;20491;-81
2023/11/10 09:55:42;;;;;;;5.45;3.40;;;;;;;15.01;100.00;103040.53;5031079;28;20964;-77
2023/11/10 09:58:09;;;;;;;6.47;3.53;;;;;;;15.43;100.00;103080.84;5048510;28;20515;-76
2023/11/10 10:00:36;;;;;;;4.45;3.13;;;;;;;15.38;100.00;103032.06;5048482;28;20021;-76
2023/11/10 10:03:04;;;;;;;6.53;3.03;;;;;;;15.86;100.00;103086.84;5048435;28;20499;-75
2023/11/10 10:05:30;;;;;;;4.43;3.33;;;;;;;15.76;100.00;103018.44;5026174;28;20060;-77
2023/11/10 10:07:55;;;;;;;4.35;3.00;;;;;;;15.73;100.00;103019.28;5028650;28;20033;-76
2023/11/10 10:10:22;;;;;;;4.65;3.60;;;;;;;15.68;100.00;102968.81;5027295;28;20060;-73
2023/11/10 10:12:48;;;;;;;6.80;3.30;;;;;;;16.02;100.00;102999.59;5042575;28;20041;-73
2023/11/10 10:15:25;;;;;;;4.03;3.10;;;;;;;15.85;100.00;102916.63;5027193;28;20030;-73
2023/11/10 10:17:51;;;;;;;5.05;3.33;;;;;;;15.91;100.00;102933.72;5026727;28;20029;-71
2023/11/10 10:20:18;;;;;;;6.22;3.20;;;;;;;16.04;100.00;102909.75;5024826;28;20037;-73
2023/11/10 10:22:48;;;;;;;6.80;3.40;;;;;;;16.26;100.00;102871.13;5027446;28;20033;-72
2023/11/10 10:25:15;;;;;;;5.60;2.97;;;;;;;15.86;100.00;102822.53;5027241;28;20026;-71
2023/11/10 10:27:41;;;;;;;5.30;3.13;;;;;;;16.09;100.00;102813.00;5027169;28;20025;-72
2023/11/10 10:30:07;;;;;;;4.88;3.00;;;;;;;16.26;100.00;102788.94;5026091;28;20060;-71
2023/11/10 10:32:36;;;;;;;3.40;2.75;;;;;;;15.81;100.00;102706.22;5040110;28;20161;-70
2023/11/10 10:35:03;;;;;;;4.15;2.90;;;;;;;15.92;100.00;102733.56;5026962;28;20021;-71
2023/11/10 10:37:31;;;;;;;4.45;2.90;;;;;;;15.74;100.00;102697.72;5025855;28;20124;-72
2023/11/10 10:40:00;;;;;;;5.93;2.92;;;;;;;15.78;100.00;102662.66;5025407;28;20053;-72
2023/11/10 10:42:34;;;;;;;4.57;2.67;;;;;;;16.37;100.00;102722.97;5024251;28;20072;-72
2023/11/10 10:45:01;;;;;;;4.55;2.97;;;;;;;16.57;100.00;102709.16;5026602;28;20060;-73
2023/11/10 10:47:27;;;;;;;5.20;2.97;;;;;;;16.29;100.00;102646.88;5026492;28;20037;-74
2023/11/10 10:49:54;;;;;;;14.27;3.72;;;;;;;15.56;100.00;102562.75;5026384;28;20086;-72
2023/11/10 10:52:20;;;;;;;4.68;3.03;;;;;;;15.80;100.00;102604.47;5027068;28;20076;-73
2023/11/10 10:54:46;;;;;;;5.90;2.90;;;;;;;15.48;100.00;102558.53;5027110;28;20037;-74
2023/11/10 10:57:13;;;;;;;4.45;2.72;;;;;;;16.19;100.00;102645.22;5026994;28;20089;-73
2023/11/10 10:59:40;;;;;;;4.18;2.63;;;;;;;16.09;100.00;102615.38;5025969;28;20079;-73
2023/11/10 11:02:09;;;;;;;4.18;2.83;;;;;;;16.27;100.00;102620.34;5025501;28;20033;-72
2023/11/10 11:04:57;;;;;;;3.33;2.60;;;;;;;16.43;100.00;102609.94;5027680;28;20480;-71
2023/11/10 11:07:28;;;;;;;4.65;2.67;;;;;;;16.56;100.00;102610.66;5045394;28;20495;-74